createdAt,value
2018-09-20T00:00:12.501Z,54.74
2018-09-20T00:02:40.213Z,55.60
2018-09-20T00:05:07.879Z,55.65
2018-09-20T00:07:35.585Z,55.67
2018-09-20T00:10:03.769Z,54.85
2018-09-20T00:12:31.426Z,54.81
2018-09-20T00:14:59.104Z,54.96
2018-09-20T00:17:26.785Z,55.49
2018-09-20T00:19:54.548Z,55.67
2018-09-20T00:22:22.281Z,55.71
2018-09-20T00:24:49.965Z,54.99
2018-09-20T00:27:17.672Z,55.37
2018-09-20T00:29:45.565Z,54.90
2018-09-20T00:32:13.302Z,54.99
2018-09-20T00:34:41.014Z,55.05
2018-09-20T00:37:08.664Z,55.70
2018-09-20T00:39:36.375Z,55.05
2018-09-20T00:42:04.037Z,55.42
2018-09-20T00:44:31.682Z,55.27
2018-09-20T00:46:59.395Z,54.86
2018-09-20T00:49:27.111Z,55.18
2018-09-20T00:51:54.788Z,55.15
2018-09-20T00:54:22.510Z,55.75
2018-09-20T00:56:50.257Z,55.01
2018-09-20T00:59:17.924Z,54.98
2018-09-20T01:01:45.610Z,55.61
2018-09-20T01:04:13.294Z,55.07
2018-09-20T01:06:40.981Z,55.84
2018-09-20T01:09:09.546Z,55.75
2018-09-20T01:11:37.505Z,55.04
2018-09-20T01:14:05.207Z,55.83
2018-09-20T01:16:32.906Z,55.02
2018-09-20T01:19:00.572Z,55.06
2018-09-20T01:21:28.258Z,54.98
2018-09-20T01:23:55.916Z,55.86
2018-09-20T01:26:23.628Z,55.87
2018-09-20T01:28:51.317Z,55.12
2018-09-20T01:31:19.109Z,55.05
2018-09-20T01:33:46.908Z,55.85
2018-09-20T01:36:14.614Z,55.15
2018-09-20T01:38:42.293Z,55.83
2018-09-20T01:41:09.966Z,55.03
2018-09-20T01:43:37.724Z,55.14
2018-09-20T01:46:05.465Z,55.08
2018-09-20T01:48:33.178Z,55.81
2018-09-20T01:51:00.858Z,55.11
2018-09-20T01:53:28.587Z,55.91
2018-09-20T01:55:56.371Z,55.96
2018-09-20T01:58:24.236Z,55.93
2018-09-20T02:00:51.975Z,55.51
2018-09-20T02:03:19.697Z,55.25
2018-09-20T02:05:47.473Z,55.80
2018-09-20T02:08:15.219Z,55.22
2018-09-20T02:10:42.932Z,55.04
2018-09-20T02:13:10.741Z,55.46
2018-09-20T02:15:38.466Z,55.18
2018-09-20T02:18:06.214Z,55.09
2018-09-20T02:20:33.941Z,55.12
2018-09-20T02:23:01.676Z,55.64
2018-09-20T02:25:29.371Z,55.12
2018-09-20T02:27:57.065Z,55.46
2018-09-20T02:30:24.732Z,55.27
2018-09-20T02:32:52.372Z,55.26
2018-09-20T02:35:20.104Z,55.21
2018-09-20T02:37:47.949Z,55.17
2018-09-20T02:40:15.607Z,55.19
2018-09-20T02:42:43.326Z,55.14
2018-09-20T02:45:11.036Z,54.96
2018-09-20T02:47:38.757Z,56.03
2018-09-20T02:50:06.482Z,55.48
2018-09-20T02:52:34.207Z,55.87
2018-09-20T02:55:01.935Z,55.98
2018-09-20T02:57:29.680Z,55.30
2018-09-20T02:59:57.410Z,55.33
2018-09-20T03:02:25.190Z,55.21
2018-09-20T03:04:52.931Z,55.32
2018-09-20T03:07:20.646Z,55.31
2018-09-20T03:09:48.369Z,55.23
2018-09-20T03:12:16.098Z,55.32
2018-09-20T03:14:43.834Z,56.00
2018-09-20T03:17:11.552Z,55.34
2018-09-20T03:19:39.288Z,55.28
2018-09-20T03:22:07.017Z,55.25
2018-09-20T03:24:34.753Z,56.09
2018-09-20T03:27:02.577Z,55.99
2018-09-20T03:29:30.298Z,56.35
2018-09-20T03:31:58.012Z,56.07
2018-09-20T03:34:25.777Z,55.28
2018-09-20T03:36:53.497Z,55.48
2018-09-20T03:39:21.286Z,55.75
2018-09-20T03:41:48.959Z,55.41
2018-09-20T03:44:16.658Z,55.54
2018-09-20T03:46:44.328Z,55.35
2018-09-20T03:49:12.117Z,56.01
2018-09-20T03:51:39.842Z,55.33
2018-09-20T03:54:07.629Z,55.33
2018-09-20T03:56:35.314Z,55.27
2018-09-20T03:59:03.145Z,55.27
2018-09-20T04:01:30.853Z,55.65
2018-09-20T04:03:58.566Z,56.08
2018-09-20T04:06:26.382Z,55.40
2018-09-20T04:08:54.142Z,56.13
2018-09-20T04:11:22.007Z,55.51
2018-09-20T04:13:49.738Z,55.28
2018-09-20T04:16:17.423Z,56.02
2018-09-20T04:18:45.174Z,55.45
2018-09-20T04:21:12.838Z,55.44
2018-09-20T04:23:40.658Z,55.46
2018-09-20T04:26:08.447Z,55.99
2018-09-20T04:28:36.225Z,55.37
2018-09-20T04:31:03.965Z,56.13
2018-09-20T04:33:31.674Z,55.42
2018-09-20T04:35:59.536Z,56.29
2018-09-20T04:38:27.341Z,55.48
2018-09-20T04:40:55.106Z,55.48
2018-09-20T04:43:22.809Z,55.43
2018-09-20T04:45:50.692Z,55.46
2018-09-20T04:48:18.511Z,55.55
2018-09-20T04:51:15.535Z,55.47
2018-09-20T04:53:43.703Z,55.48
2018-09-20T04:56:11.446Z,55.58
2018-09-20T04:58:39.193Z,55.79
2018-09-20T05:01:06.914Z,55.52
2018-09-20T05:03:34.852Z,55.27
2018-09-20T05:06:02.668Z,55.51
2018-09-20T05:08:30.560Z,56.00
2018-09-20T05:10:58.269Z,55.55
2018-09-20T05:16:00.222Z,56.33
2018-09-20T05:18:27.983Z,55.48
2018-09-20T05:20:55.693Z,55.63
2018-09-20T05:23:23.412Z,56.13
2018-09-20T05:25:51.098Z,56.25
2018-09-20T05:28:19.097Z,56.27
2018-09-20T05:30:46.773Z,55.58
2018-09-20T05:33:14.515Z,55.70
2018-09-20T05:35:42.180Z,55.93
2018-09-20T05:38:09.892Z,55.56
2018-09-20T05:40:37.558Z,55.70
2018-09-20T05:43:05.249Z,55.85
2018-09-20T05:45:32.968Z,56.35
2018-09-20T05:48:00.667Z,55.57
2018-09-20T05:50:28.433Z,55.57
2018-09-20T05:52:56.101Z,56.31
2018-09-20T05:55:23.826Z,55.67
2018-09-20T05:57:51.531Z,55.66
2018-09-20T06:00:19.229Z,56.32
2018-09-20T06:02:46.900Z,55.58
2018-09-20T06:05:14.637Z,56.30
2018-09-20T06:07:42.414Z,56.41
2018-09-20T06:10:10.161Z,55.54
2018-09-20T06:12:37.919Z,56.29
2018-09-20T06:15:05.605Z,55.59
2018-09-20T06:17:33.292Z,55.59
2018-09-20T06:20:01.024Z,56.30
2018-09-20T06:22:28.754Z,55.70
2018-09-20T06:24:56.542Z,55.49
2018-09-20T06:27:24.305Z,56.13
2018-09-20T06:29:52.017Z,55.79
2018-09-20T06:32:19.790Z,55.39
2018-09-20T06:34:47.543Z,55.66
2018-09-20T06:37:15.218Z,55.90
2018-09-20T06:39:42.900Z,55.40
2018-09-20T06:42:10.777Z,55.26
2018-09-20T06:44:38.553Z,55.60
2018-09-20T06:47:06.315Z,56.14
2018-09-20T06:49:34.137Z,55.32
2018-09-20T06:52:01.888Z,55.54
2018-09-20T06:54:29.640Z,55.82
2018-09-20T06:56:57.341Z,55.31
2018-09-20T06:59:25.027Z,56.15
2018-09-20T07:01:52.793Z,56.14
2018-09-20T07:04:20.473Z,56.10
2018-09-20T07:06:48.274Z,55.33
2018-09-20T07:09:16.013Z,55.82
2018-09-20T07:11:43.801Z,55.97
2018-09-20T07:14:11.697Z,55.36
2018-09-20T07:16:39.458Z,55.40
2018-09-20T07:19:07.304Z,55.43
2018-09-20T07:21:35.039Z,56.17
2018-09-20T07:24:03.138Z,55.66
2018-09-20T07:26:31.033Z,55.36
2018-09-20T07:28:58.748Z,55.91
2018-09-20T07:31:26.382Z,56.14
2018-09-20T07:33:54.058Z,55.42
2018-09-20T07:36:21.680Z,56.13
2018-09-20T07:38:49.303Z,55.78
2018-09-20T07:41:16.941Z,55.57
2018-09-20T07:43:44.583Z,55.43
2018-09-20T07:46:12.218Z,55.66
2018-09-20T07:48:39.854Z,56.09
2018-09-20T07:51:07.654Z,55.22
2018-09-20T07:53:35.551Z,55.69
2018-09-20T07:56:03.187Z,55.32
2018-09-20T07:58:30.921Z,55.98
2018-09-20T08:00:58.554Z,56.19
2018-09-20T08:03:26.179Z,56.12
2018-09-20T08:05:53.841Z,55.73
2018-09-20T08:08:21.462Z,55.36
2018-09-20T08:10:49.113Z,55.37
2018-09-20T08:13:16.736Z,55.39
2018-09-20T08:15:44.396Z,56.16
2018-09-20T08:18:12.313Z,55.44
2018-09-20T08:20:39.937Z,55.36
2018-09-20T08:23:07.572Z,55.42
2018-09-20T08:25:35.205Z,55.67
2018-09-20T08:28:02.825Z,56.19
2018-09-20T08:30:30.454Z,55.47
2018-09-20T08:32:58.069Z,55.53
2018-09-20T08:35:25.721Z,55.38
2018-09-20T08:37:53.342Z,55.46
2018-09-20T08:40:20.980Z,56.15
2018-09-20T08:42:48.608Z,55.50
2018-09-20T08:45:16.226Z,56.12
2018-09-20T08:47:43.862Z,56.10
2018-09-20T08:50:11.515Z,56.07
2018-09-20T08:52:39.174Z,56.11
2018-09-20T08:55:06.807Z,55.40
2018-09-20T08:57:39.828Z,56.18
2018-09-20T09:00:07.478Z,55.74
2018-09-20T09:02:35.125Z,55.49
2018-09-20T09:05:02.755Z,55.39
2018-09-20T09:07:30.391Z,55.37
2018-09-20T09:09:58.094Z,55.42
2018-09-20T09:12:25.725Z,55.64
2018-09-20T09:14:53.350Z,55.75
2018-09-20T09:17:20.974Z,55.26
2018-09-20T09:19:48.607Z,55.92
2018-09-20T09:22:16.234Z,55.31
2018-09-20T09:24:43.864Z,55.36
2018-09-20T09:27:11.518Z,55.20
2018-09-20T09:29:39.178Z,55.61
2018-09-20T09:32:06.805Z,55.72
2018-09-20T09:34:34.430Z,55.88
2018-09-20T09:37:02.085Z,55.29
2018-09-20T09:39:29.738Z,55.87
2018-09-20T09:41:57.387Z,55.88
2018-09-20T09:44:25.006Z,55.21
2018-09-20T09:46:52.673Z,55.16
2018-09-20T09:49:20.322Z,55.94
2018-09-20T09:51:47.961Z,55.91
2018-09-20T09:54:15.686Z,55.96
2018-09-20T09:56:43.293Z,55.47
2018-09-20T09:59:10.930Z,56.02
2018-09-20T10:01:38.557Z,56.00
2018-09-20T10:04:06.194Z,55.97
2018-09-20T10:06:33.845Z,55.50
2018-09-20T10:09:01.469Z,55.14
2018-09-20T10:11:29.098Z,55.14
2018-09-20T10:13:56.744Z,55.72
2018-09-20T10:16:24.356Z,55.95
2018-09-20T10:18:51.998Z,55.84
2018-09-20T10:21:19.633Z,55.09
2018-09-20T10:23:47.340Z,55.96
2018-09-20T10:26:14.941Z,55.38
2018-09-20T10:28:42.583Z,55.96
2018-09-20T10:31:10.218Z,55.09
2018-09-20T10:33:37.859Z,55.22
2018-09-20T10:36:05.514Z,55.38
2018-09-20T10:38:33.151Z,55.97
2018-09-20T10:41:00.844Z,55.26
2018-09-20T10:43:28.459Z,55.33
2018-09-20T10:45:56.101Z,55.12
2018-09-20T10:48:23.749Z,55.85
2018-09-20T10:50:51.435Z,55.27
2018-09-20T10:53:19.127Z,55.24
2018-09-20T10:55:46.757Z,55.89
2018-09-20T10:58:14.453Z,55.89
2018-09-20T11:00:42.099Z,55.21
2018-09-20T11:03:09.797Z,55.33
2018-09-20T11:05:37.410Z,55.86
2018-09-20T11:08:05.090Z,55.93
2018-09-20T11:10:32.728Z,55.38
2018-09-20T11:13:00.410Z,55.20
2018-09-20T11:15:28.070Z,55.86
2018-09-20T11:17:55.738Z,55.90
2018-09-20T11:20:23.391Z,55.19
2018-09-20T11:22:51.018Z,55.12
2018-09-20T11:25:18.638Z,55.64
2018-09-20T11:27:46.301Z,55.98
2018-09-20T11:30:13.936Z,55.99
2018-09-20T11:32:41.553Z,55.14
2018-09-20T11:35:09.212Z,55.96
2018-09-20T11:37:36.862Z,55.80
2018-09-20T11:40:04.560Z,56.16
2018-09-20T11:42:32.189Z,55.22
2018-09-20T11:44:59.823Z,55.31
2018-09-20T11:47:27.497Z,55.85
2018-09-20T11:49:55.126Z,55.34
2018-09-20T11:52:22.788Z,55.20
2018-09-20T11:54:50.422Z,56.10
2018-09-20T11:57:18.088Z,55.13
2018-09-20T11:59:45.750Z,55.84
2018-09-20T12:02:13.383Z,55.26
2018-09-20T12:04:41.489Z,55.98
2018-09-20T12:07:09.112Z,55.69
2018-09-20T12:09:36.767Z,56.11
2018-09-20T12:12:04.400Z,55.62
2018-09-20T12:14:32.049Z,55.12
2018-09-20T12:16:59.691Z,55.81
2018-09-20T12:19:27.365Z,55.30
2018-09-20T12:21:54.984Z,55.45
2018-09-20T12:24:22.606Z,55.36
2018-09-20T12:26:50.251Z,56.06
2018-09-20T12:29:17.899Z,55.23
2018-09-20T12:31:45.543Z,55.35
2018-09-20T12:34:13.165Z,55.80
2018-09-20T12:36:40.836Z,55.19
2018-09-20T12:39:09.841Z,55.39
2018-09-20T12:41:37.474Z,55.33
2018-09-20T12:44:05.107Z,55.69
2018-09-20T12:46:32.741Z,55.26
2018-09-20T12:49:00.573Z,55.03
2018-09-20T12:51:28.214Z,55.77
2018-09-20T12:53:55.839Z,55.64
2018-09-20T12:56:23.504Z,55.06
2018-09-20T12:58:52.032Z,55.83
2018-09-20T13:01:20.743Z,55.09
2018-09-20T13:03:48.690Z,55.31
2018-09-20T13:06:16.556Z,55.60
2018-09-20T13:08:44.181Z,55.92
2018-09-20T13:11:11.878Z,55.98
2018-09-20T13:13:39.863Z,55.63
2018-09-20T13:16:07.498Z,55.14
2018-09-20T13:18:35.117Z,55.53
2018-09-20T13:21:02.750Z,55.58
2018-09-20T13:23:30.373Z,55.81
2018-09-20T13:25:58.008Z,55.26
2018-09-20T13:28:25.654Z,55.88
2018-09-20T13:30:53.290Z,54.92
2018-09-20T13:33:20.969Z,55.03
2018-09-20T13:35:48.613Z,54.97
2018-09-20T13:38:16.246Z,54.88
2018-09-20T13:40:43.880Z,54.90
2018-09-20T13:43:11.547Z,55.52
2018-09-20T13:45:39.297Z,55.58
2018-09-20T13:48:06.919Z,55.36
2018-09-20T13:50:34.555Z,55.83
2018-09-20T13:53:02.209Z,54.95
2018-09-20T13:55:30.068Z,54.80
2018-09-20T13:57:58.234Z,55.58
2018-09-20T14:00:25.854Z,55.54
2018-09-20T14:02:53.490Z,55.52
2018-09-20T14:05:21.106Z,54.71
2018-09-20T14:07:48.858Z,55.72
2018-09-20T14:10:16.485Z,54.84
2018-09-20T14:12:44.182Z,54.78
2018-09-20T14:15:11.837Z,54.64
2018-09-20T14:17:39.498Z,55.39
2018-09-20T14:20:07.130Z,54.78
2018-09-20T14:22:35.113Z,54.41
2018-09-20T14:25:02.768Z,54.80
2018-09-20T14:27:30.407Z,54.24
2018-09-20T14:29:58.037Z,53.96
2018-09-20T14:32:25.897Z,54.76
2018-09-20T14:34:53.714Z,54.58
2018-09-20T14:37:21.332Z,55.02
2018-09-20T14:39:49.120Z,54.87
2018-09-20T14:42:16.735Z,54.22
2018-09-20T14:44:44.358Z,54.28
2018-09-20T14:47:12.003Z,54.45
2018-09-20T14:49:39.643Z,54.72
2018-09-20T14:52:07.283Z,54.86
2018-09-20T14:54:34.936Z,54.28
2018-09-20T14:57:02.600Z,54.64
2018-09-20T14:59:30.285Z,54.39
2018-09-20T15:01:58.218Z,54.61
2018-09-20T15:04:25.864Z,55.09
2018-09-20T15:06:53.499Z,54.57
2018-09-20T15:09:21.134Z,55.17
2018-09-20T15:11:48.779Z,55.30
2018-09-20T15:14:16.428Z,54.45
2018-09-20T15:16:44.061Z,55.00
2018-09-20T15:19:11.696Z,54.33
2018-09-20T15:21:39.324Z,54.69
2018-09-20T15:24:06.959Z,55.07
2018-09-20T15:26:34.711Z,54.32
2018-09-20T15:29:02.366Z,54.79
2018-09-20T15:31:30.020Z,55.03
2018-09-20T15:33:57.681Z,55.08
2018-09-20T15:36:25.344Z,54.68
2018-09-20T15:38:52.964Z,54.25
2018-09-20T15:41:20.916Z,55.07
2018-09-20T15:43:48.562Z,54.99
2018-09-20T15:46:16.173Z,54.74
2018-09-20T15:48:43.878Z,54.46
2018-09-20T15:51:11.503Z,54.97
2018-09-20T15:53:39.132Z,54.85
2018-09-20T15:56:06.748Z,54.65
2018-09-20T15:58:34.365Z,54.89
2018-09-20T16:01:02.003Z,54.26
2018-09-20T16:03:29.628Z,54.89
2018-09-20T16:05:57.333Z,54.15
2018-09-20T16:08:24.974Z,54.81
2018-09-20T16:10:52.727Z,54.96
2018-09-20T16:13:20.817Z,54.23
2018-09-20T16:15:48.856Z,54.43
2018-09-20T16:18:16.807Z,54.16
2018-09-20T16:20:44.786Z,54.57
2018-09-20T16:23:12.756Z,54.25
2018-09-20T16:25:40.790Z,54.25
2018-09-20T16:28:19.927Z,54.90
2018-09-20T16:31:00.916Z,54.89
2018-09-20T16:33:51.440Z,54.27
2018-09-20T16:37:28.550Z,54.26
2018-09-20T16:39:57.556Z,54.96
2018-09-20T16:42:26.686Z,54.99
2018-09-20T16:44:54.679Z,54.21
2018-09-20T16:47:22.636Z,54.17
2018-09-20T16:49:50.433Z,54.85
2018-09-20T16:52:18.174Z,54.04
2018-09-20T16:54:45.922Z,54.79
2018-09-20T16:57:13.711Z,54.03
2018-09-20T16:59:41.621Z,54.02
2018-09-20T17:02:09.578Z,53.96
2018-09-20T17:04:37.371Z,54.49
2018-09-20T17:07:05.228Z,54.14
2018-09-20T17:09:33.167Z,54.12
2018-09-20T17:12:00.967Z,54.94
2018-09-20T17:14:28.857Z,54.42
2018-09-20T17:16:56.707Z,54.23
2018-09-20T17:19:24.539Z,54.08
2018-09-20T17:21:52.595Z,54.08
2018-09-20T17:24:21.149Z,54.19
2018-09-20T17:26:49.033Z,54.40
2018-09-20T17:29:17.022Z,54.77
2018-09-20T17:31:44.899Z,54.26
2018-09-20T17:34:13.003Z,54.47
2018-09-20T17:36:41.130Z,54.17
2018-09-20T17:39:10.572Z,55.12
2018-09-20T17:41:39.713Z,54.23
2018-09-20T17:44:09.159Z,54.66
2018-09-20T17:46:36.947Z,54.29
2018-09-20T17:49:04.724Z,54.29
2018-09-20T17:51:32.846Z,54.40
2018-09-20T17:54:00.966Z,54.35
2018-09-20T17:56:29.098Z,54.89
2018-09-20T17:58:57.090Z,54.80
2018-09-20T18:01:24.874Z,54.38
2018-09-20T18:03:52.746Z,54.97
2018-09-20T18:06:20.547Z,54.41
2018-09-20T18:08:48.418Z,54.57
2018-09-20T18:11:16.181Z,54.25
2018-09-20T18:13:43.954Z,54.29
2018-09-20T18:16:11.866Z,54.35
2018-09-20T18:18:39.769Z,54.35
2018-09-20T18:21:07.556Z,55.02
2018-09-20T18:23:35.357Z,54.61
2018-09-20T18:26:03.169Z,54.32
2018-09-20T18:28:30.975Z,54.34
2018-09-20T18:30:58.909Z,54.96
2018-09-20T18:33:26.935Z,55.00
2018-09-20T18:35:54.893Z,55.07
2018-09-20T18:38:22.787Z,54.29
2018-09-20T18:40:50.547Z,54.55
2018-09-20T18:43:18.494Z,54.33
2018-09-20T18:45:46.379Z,54.47
2018-09-20T18:48:14.189Z,54.43
2018-09-20T18:50:42.052Z,54.26
2018-09-20T18:53:09.906Z,54.69
2018-09-20T18:55:37.788Z,54.61
2018-09-20T18:58:05.542Z,54.28
2018-09-20T19:00:33.405Z,55.09
2018-09-20T19:03:01.284Z,55.04
2018-09-20T19:05:29.000Z,55.08
2018-09-20T19:07:56.860Z,54.33
2018-09-20T19:10:24.783Z,55.10
2018-09-20T19:12:52.635Z,54.40
2018-09-20T19:15:20.447Z,54.96
2018-09-20T19:17:48.313Z,55.13
2018-09-20T19:20:18.038Z,54.42
2018-09-20T19:22:46.433Z,55.13
2018-09-20T19:25:15.236Z,54.38
2018-09-20T19:27:43.629Z,54.39
2018-09-20T19:30:11.362Z,55.18
2018-09-20T19:32:43.067Z,54.32
2018-09-20T19:35:20.828Z,54.34
2018-09-20T19:37:48.441Z,54.41
2018-09-20T19:40:18.896Z,55.00
2018-09-20T19:42:47.638Z,54.44
2018-09-20T19:45:18.057Z,55.11
2018-09-20T19:47:47.403Z,54.33
2018-09-20T19:50:18.431Z,54.45
2018-09-20T19:52:46.447Z,54.38
2018-09-20T19:55:16.114Z,55.15
2018-09-20T19:57:46.018Z,55.18
2018-09-20T20:00:13.980Z,54.35
2018-09-20T20:02:43.954Z,54.38
2018-09-20T20:05:15.414Z,54.83
2018-09-20T20:07:46.645Z,54.46
2018-09-20T20:10:14.496Z,54.73
2018-09-20T20:12:45.337Z,54.43
2018-09-20T20:15:14.306Z,55.10
2018-09-20T20:17:44.500Z,54.40
2018-09-20T20:20:12.913Z,54.29
2018-09-20T20:22:40.916Z,54.33
2018-09-20T20:25:08.972Z,55.01
2018-09-20T20:27:36.972Z,54.71
2018-09-20T20:30:05.143Z,55.41
2018-09-20T20:32:33.588Z,54.39
2018-09-20T20:35:03.492Z,54.44
2018-09-20T20:37:31.564Z,54.44
2018-09-20T20:39:59.399Z,54.45
2018-09-20T20:42:27.945Z,54.51
2018-09-20T20:44:55.895Z,54.50
2018-09-20T20:47:24.076Z,54.50
2018-09-20T20:49:51.757Z,54.58
2018-09-20T20:52:19.466Z,55.29
2018-09-20T20:54:47.172Z,55.28
2018-09-20T20:57:14.985Z,55.31
2018-09-20T20:59:42.626Z,54.53
2018-09-20T21:02:10.296Z,55.24
2018-09-20T21:04:37.962Z,55.25
2018-09-20T21:07:05.633Z,54.54
2018-09-20T21:09:33.321Z,54.72
2018-09-20T21:12:01.028Z,54.56
2018-09-20T21:14:28.905Z,54.75
2018-09-20T21:16:56.618Z,55.35
2018-09-20T21:19:24.275Z,54.59
2018-09-20T21:21:51.942Z,54.42
2018-09-20T21:24:19.610Z,54.45
2018-09-20T21:26:47.291Z,55.23
2018-09-20T21:29:14.941Z,54.51
2018-09-20T21:31:42.634Z,55.16
2018-09-20T21:34:10.306Z,54.43
2018-09-20T21:36:38.081Z,55.03
2018-09-20T21:39:07.687Z,54.57
2018-09-20T21:41:35.403Z,55.30
2018-09-20T21:44:03.056Z,54.40
2018-09-20T21:46:30.717Z,54.35
2018-09-20T21:48:58.394Z,55.11
2018-09-20T21:51:26.045Z,55.18
2018-09-20T21:53:53.686Z,54.37
2018-09-20T21:56:21.406Z,55.02
2018-09-20T21:58:49.141Z,55.13
2018-09-20T22:01:16.853Z,54.58
2018-09-20T22:03:44.524Z,55.10
2018-09-20T22:06:12.173Z,54.39
2018-09-20T22:08:39.829Z,55.19
2018-09-20T22:11:07.501Z,55.13
2018-09-20T22:13:36.234Z,54.37
2018-09-20T22:16:03.878Z,54.39
2018-09-20T22:18:31.630Z,54.99
2018-09-20T22:20:59.348Z,55.13
2018-09-20T22:23:27.029Z,55.27
2018-09-20T22:25:54.704Z,55.17
2018-09-20T22:28:22.362Z,55.13
2018-09-20T22:30:50.184Z,54.74
2018-09-20T22:33:17.833Z,54.48
2018-09-20T22:35:45.613Z,54.48
2018-09-20T22:38:13.303Z,55.24
2018-09-20T22:40:40.926Z,55.07
2018-09-20T22:43:08.577Z,55.20
2018-09-20T22:45:36.193Z,55.08
2018-09-20T22:48:03.814Z,54.98
2018-09-20T22:50:31.441Z,54.50
2018-09-20T22:52:59.057Z,54.51
2018-09-20T22:55:26.788Z,54.58
2018-09-20T22:57:54.445Z,54.58
2018-09-20T23:00:23.369Z,55.09
2018-09-20T23:02:51.830Z,55.27
2018-09-20T23:05:19.445Z,54.69
2018-09-20T23:07:47.065Z,54.88
2018-09-20T23:10:14.691Z,54.52
2018-09-20T23:12:42.339Z,54.42
2018-09-20T23:15:09.974Z,55.27
2018-09-20T23:17:37.621Z,55.09
2018-09-20T23:20:05.270Z,55.36
2018-09-20T23:22:32.897Z,55.36
2018-09-20T23:25:00.543Z,54.65
2018-09-20T23:27:28.192Z,54.69
2018-09-20T23:29:55.847Z,55.32
2018-09-20T23:32:23.482Z,54.56
2018-09-20T23:34:51.110Z,55.23
2018-09-20T23:37:18.724Z,54.78
2018-09-20T23:39:46.411Z,54.97
2018-09-20T23:42:14.038Z,54.78
2018-09-20T23:44:41.657Z,54.63
2018-09-20T23:47:09.276Z,55.32
2018-09-20T23:49:36.901Z,54.53
2018-09-20T23:52:04.623Z,54.71
2018-09-20T23:54:32.244Z,54.77
2018-09-20T23:56:59.905Z,54.72
2018-09-20T23:59:27.523Z,55.22
